createdAt,value
2022-12-03T00:00:46.715Z,1.80
2022-12-03T00:03:14.032Z,1.70
2022-12-03T00:05:48.195Z,1.80
2022-12-03T00:08:16.157Z,1.70
2022-12-03T00:10:43.377Z,1.70
2022-12-03T00:13:10.669Z,1.70
2022-12-03T00:15:37.999Z,1.70
2022-12-03T00:18:05.227Z,1.70
2022-12-03T00:20:32.318Z,1.50
2022-12-03T00:22:59.486Z,1.50
2022-12-03T00:25:26.587Z,1.60
2022-12-03T00:27:53.724Z,1.60
2022-12-03T00:30:20.906Z,1.60
2022-12-03T00:32:48.006Z,1.60
2022-12-03T00:35:15.117Z,1.50
2022-12-03T00:37:42.535Z,1.60
2022-12-03T00:40:10.864Z,1.60
2022-12-03T00:42:38.024Z,1.60
2022-12-03T00:45:05.584Z,1.70
2022-12-03T00:47:32.700Z,1.70
2022-12-03T00:50:00.043Z,1.70
2022-12-03T00:52:27.325Z,1.70
2022-12-03T00:54:54.518Z,1.80
2022-12-03T00:57:21.838Z,1.70
2022-12-03T00:59:49.287Z,1.50
2022-12-03T01:02:16.630Z,1.60
2022-12-03T01:04:44.149Z,1.70
2022-12-03T01:07:11.462Z,1.70
2022-12-03T01:09:38.808Z,1.70
2022-12-03T01:12:06.064Z,1.70
2022-12-03T01:14:33.324Z,1.70
2022-12-03T01:17:00.435Z,1.70
2022-12-03T01:19:27.659Z,1.80
2022-12-03T01:21:55.947Z,1.70
2022-12-03T01:24:23.159Z,1.80
2022-12-03T01:26:50.303Z,1.70
2022-12-03T01:29:17.545Z,1.70
2022-12-03T01:32:03.442Z,1.70
2022-12-03T01:34:30.759Z,1.70
2022-12-03T01:36:57.886Z,1.80
2022-12-03T01:39:25.477Z,1.70
2022-12-03T01:41:52.902Z,1.80
2022-12-03T01:44:33.807Z,1.80
2022-12-03T01:47:03.152Z,1.80
2022-12-03T01:49:43.069Z,1.80
2022-12-03T01:52:12.957Z,1.70
2022-12-03T01:54:42.078Z,1.70
2022-12-03T01:57:20.302Z,1.80
2022-12-03T01:59:47.656Z,1.70
2022-12-03T02:02:21.383Z,1.70
2022-12-03T02:04:49.056Z,1.70
2022-12-03T02:07:19.091Z,1.70
2022-12-03T02:09:46.445Z,1.50
2022-12-03T02:12:14.308Z,1.50
2022-12-03T02:14:41.592Z,1.60
2022-12-03T02:17:08.799Z,1.50
2022-12-03T02:19:35.979Z,1.60
2022-12-03T02:22:14.842Z,1.60
2022-12-03T02:24:42.124Z,1.60
2022-12-03T02:27:09.279Z,1.50
2022-12-03T02:29:36.720Z,1.50
2022-12-03T02:32:03.990Z,1.70
2022-12-03T02:34:42.672Z,1.60
2022-12-03T02:37:13.765Z,1.70
2022-12-03T02:39:43.366Z,1.60
2022-12-03T02:42:29.021Z,1.60
2022-12-03T02:44:59.478Z,1.40
2022-12-03T02:47:31.212Z,1.40
2022-12-03T02:49:58.388Z,1.50
2022-12-03T02:52:25.595Z,1.40
2022-12-03T02:54:52.969Z,1.30
2022-12-03T02:57:20.502Z,1.30
2022-12-03T02:59:47.679Z,1.20
2022-12-03T03:02:15.303Z,1.20
2022-12-03T03:04:43.643Z,1.10
2022-12-03T03:07:10.788Z,0.90
2022-12-03T03:09:37.924Z,0.90
2022-12-03T03:12:05.356Z,0.80
2022-12-03T03:14:33.041Z,0.80
2022-12-03T03:17:00.145Z,0.80
2022-12-03T03:19:27.452Z,0.80
2022-12-03T03:21:54.594Z,0.90
2022-12-03T03:24:21.850Z,0.90
2022-12-03T03:26:49.675Z,1.00
2022-12-03T03:29:17.085Z,1.10
2022-12-03T03:31:44.352Z,1.00
2022-12-03T03:34:11.534Z,1.00
2022-12-03T03:36:39.143Z,0.90
2022-12-03T03:39:06.395Z,1.00
2022-12-03T03:41:33.588Z,0.90
2022-12-03T03:44:00.674Z,1.00
2022-12-03T03:46:28.113Z,1.00
2022-12-03T03:48:55.457Z,1.10
2022-12-03T03:51:22.750Z,1.10
2022-12-03T03:53:49.927Z,1.20
2022-12-03T03:56:17.688Z,1.10
2022-12-03T03:58:44.939Z,1.10
2022-12-03T04:01:12.805Z,1.00
2022-12-03T04:03:40.233Z,1.00
2022-12-03T04:06:07.807Z,0.80
2022-12-03T04:08:35.010Z,0.70
2022-12-03T04:11:20.708Z,0.80
2022-12-03T04:13:47.938Z,0.90
2022-12-03T04:16:15.065Z,0.80
2022-12-03T04:18:45.213Z,0.90
2022-12-03T04:21:35.578Z,0.90
2022-12-03T04:24:02.809Z,0.90
2022-12-03T04:26:48.706Z,1.00
2022-12-03T04:29:16.231Z,1.00
2022-12-03T04:32:02.390Z,0.80
2022-12-03T04:34:48.302Z,0.90
2022-12-03T04:37:15.652Z,0.90
2022-12-03T04:39:42.785Z,0.90
2022-12-03T04:42:10.008Z,0.90
2022-12-03T04:44:37.063Z,0.70
2022-12-03T04:47:12.437Z,0.80
2022-12-03T04:49:41.292Z,0.70
2022-12-03T04:52:08.644Z,0.80
2022-12-03T04:54:35.922Z,0.70
2022-12-03T04:57:03.858Z,0.80
2022-12-03T04:59:31.192Z,0.80
2022-12-03T05:01:58.815Z,0.70
2022-12-03T05:04:25.875Z,0.80
2022-12-03T05:06:53.029Z,0.70
2022-12-03T05:09:20.335Z,0.60
2022-12-03T05:11:47.416Z,0.70
2022-12-03T05:14:14.508Z,0.70
2022-12-03T05:16:42.258Z,0.80
2022-12-03T05:19:09.894Z,0.50
2022-12-03T05:21:37.287Z,0.50
2022-12-03T05:24:04.693Z,0.60
2022-12-03T05:26:31.804Z,0.60
2022-12-03T05:28:58.962Z,0.60
2022-12-03T05:31:26.447Z,0.70
2022-12-03T05:33:55.043Z,0.60
2022-12-03T05:36:22.330Z,0.60
2022-12-03T05:38:49.390Z,0.70
2022-12-03T05:41:35.230Z,0.80
2022-12-03T05:44:02.325Z,0.80
2022-12-03T05:46:29.540Z,0.80
2022-12-03T05:48:56.809Z,0.60
2022-12-03T05:51:23.980Z,0.70
2022-12-03T05:53:51.095Z,0.70
2022-12-03T05:56:18.261Z,0.80
2022-12-03T05:58:45.311Z,0.70
2022-12-03T06:01:12.299Z,0.70
2022-12-03T06:03:39.374Z,0.80
2022-12-03T06:06:06.862Z,0.80
2022-12-03T06:08:33.971Z,0.80
2022-12-03T06:11:00.959Z,0.80
2022-12-03T06:13:28.099Z,0.80
2022-12-03T06:15:55.173Z,0.90
2022-12-03T06:18:22.286Z,0.90
2022-12-03T06:20:49.698Z,0.90
2022-12-03T06:23:16.674Z,0.80
2022-12-03T06:25:43.716Z,0.70
2022-12-03T06:28:10.793Z,0.60
2022-12-03T06:30:37.906Z,0.50
2022-12-03T06:33:04.982Z,0.60
2022-12-03T06:35:32.027Z,0.70
2022-12-03T06:37:59.329Z,0.80
2022-12-03T06:40:26.509Z,0.80
2022-12-03T06:42:53.885Z,0.70
2022-12-03T06:45:21.025Z,0.70
2022-12-03T06:47:48.158Z,0.80
2022-12-03T06:50:15.424Z,0.80
2022-12-03T06:52:42.689Z,0.80
2022-12-03T06:55:10.239Z,0.80
2022-12-03T06:57:37.444Z,0.80
2022-12-03T07:00:06.234Z,0.80
2022-12-03T07:02:33.555Z,0.90
2022-12-03T07:05:00.741Z,0.80
2022-12-03T07:07:28.074Z,0.80
2022-12-03T07:09:55.309Z,0.70
2022-12-03T07:12:22.435Z,0.70
2022-12-03T07:14:49.592Z,0.70
2022-12-03T07:17:31.938Z,0.80
2022-12-03T07:19:59.044Z,0.80
2022-12-03T07:22:26.390Z,0.80
2022-12-03T07:24:53.903Z,0.80
2022-12-03T07:27:21.412Z,0.70
2022-12-03T07:29:48.537Z,0.50
2022-12-03T07:32:15.665Z,0.50
2022-12-03T07:34:42.678Z,0.50
2022-12-03T07:37:09.833Z,0.50
2022-12-03T07:39:37.032Z,0.60
2022-12-03T07:42:04.250Z,0.70
2022-12-03T07:44:34.253Z,0.80
2022-12-03T07:47:01.458Z,0.70
2022-12-03T07:49:28.704Z,0.70
2022-12-03T07:51:57.142Z,0.80
2022-12-03T07:54:24.717Z,0.80
2022-12-03T07:56:55.440Z,0.70
2022-12-03T07:59:25.342Z,0.70
2022-12-03T08:01:52.515Z,0.80
2022-12-03T08:04:21.267Z,0.70
2022-12-03T08:06:49.080Z,0.60
2022-12-03T08:09:16.597Z,0.70
2022-12-03T08:11:45.782Z,0.70
2022-12-03T08:14:17.626Z,0.70
2022-12-03T08:16:45.995Z,0.60
2022-12-03T08:19:17.213Z,0.70
2022-12-03T08:21:44.513Z,0.80
2022-12-03T08:24:11.826Z,0.90
2022-12-03T08:26:38.834Z,0.90
2022-12-03T08:29:10.529Z,1.00
2022-12-03T08:31:37.726Z,1.10
2022-12-03T08:34:21.221Z,1.30
2022-12-03T08:36:52.616Z,1.30
2022-12-03T08:39:35.746Z,1.20
2022-12-03T08:42:43.555Z,1.10
2022-12-03T08:45:41.313Z,1.10
2022-12-03T08:48:20.451Z,1.00
2022-12-03T08:50:47.740Z,1.10
2022-12-03T08:53:25.612Z,1.10
2022-12-03T08:55:53.520Z,1.30
2022-12-03T08:58:25.052Z,1.40
2022-12-03T09:01:11.047Z,1.50
2022-12-03T09:03:39.584Z,1.30
2022-12-03T09:06:07.092Z,1.10
2022-12-03T09:08:34.218Z,1.00
2022-12-03T09:11:01.649Z,1.10
2022-12-03T09:13:28.790Z,1.20
2022-12-03T09:15:55.991Z,1.40
2022-12-03T09:18:23.368Z,1.30
2022-12-03T09:20:50.723Z,1.30
2022-12-03T09:23:17.999Z,1.40
2022-12-03T09:25:45.151Z,1.50
2022-12-03T09:28:12.218Z,1.60
2022-12-03T09:30:39.509Z,1.50
2022-12-03T09:33:06.653Z,1.50
2022-12-03T09:35:34.027Z,1.70
2022-12-03T09:38:01.370Z,1.70
2022-12-03T09:40:29.140Z,1.70
2022-12-03T09:42:58.772Z,1.70
2022-12-03T09:45:25.954Z,1.70
2022-12-03T09:47:53.014Z,1.80
2022-12-03T09:50:22.030Z,1.80
2022-12-03T09:52:50.199Z,1.90
2022-12-03T09:55:19.679Z,1.80
2022-12-03T09:57:47.025Z,1.70
2022-12-03T10:00:19.400Z,1.80
2022-12-03T10:02:47.268Z,1.90
2022-12-03T10:05:14.650Z,2.00
2022-12-03T10:07:42.134Z,2.00
2022-12-03T10:10:21.480Z,2.00
2022-12-03T10:12:49.044Z,2.00
2022-12-03T10:15:17.704Z,1.90
2022-12-03T10:17:48.565Z,1.90
2022-12-03T10:20:17.037Z,2.00
2022-12-03T10:22:44.243Z,2.10
2022-12-03T10:25:15.980Z,2.00
2022-12-03T10:27:43.155Z,2.00
2022-12-03T10:30:20.307Z,2.00
2022-12-03T10:32:49.170Z,1.60
2022-12-03T10:35:27.380Z,1.70
2022-12-03T10:38:02.290Z,1.70
2022-12-03T10:40:33.871Z,2.50
2022-12-03T10:43:27.556Z,1.80
2022-12-03T10:46:04.660Z,1.90
2022-12-03T10:48:32.329Z,1.90
2022-12-03T10:51:21.309Z,2.00
2022-12-03T10:53:49.120Z,1.90
2022-12-03T10:56:21.714Z,2.00
2022-12-03T10:58:48.912Z,1.90
2022-12-03T11:01:22.204Z,2.00
2022-12-03T11:03:49.591Z,2.10
2022-12-03T11:06:21.077Z,2.10
2022-12-03T11:08:57.769Z,2.20
2022-12-03T11:11:28.364Z,2.20
2022-12-03T11:13:59.756Z,2.20
2022-12-03T11:16:41.975Z,2.30
2022-12-03T11:19:19.306Z,2.30
2022-12-03T11:22:05.028Z,2.30
2022-12-03T11:24:33.428Z,2.40
2022-12-03T11:27:00.459Z,2.50
2022-12-03T11:29:50.628Z,2.50
2022-12-03T11:32:39.887Z,2.60
2022-12-03T11:35:26.536Z,2.70
2022-12-03T11:37:53.631Z,2.80
2022-12-03T11:40:25.879Z,2.90
2022-12-03T11:42:53.245Z,2.90
2022-12-03T11:45:30.540Z,2.90
2022-12-03T11:48:00.592Z,2.90
2022-12-03T11:50:33.585Z,3.00
2022-12-03T11:53:16.730Z,3.00
2022-12-03T11:55:49.321Z,2.90
2022-12-03T11:58:25.385Z,2.80
2022-12-03T12:00:56.999Z,2.90
2022-12-03T12:03:33.180Z,2.80
2022-12-03T12:06:07.868Z,2.90
2022-12-03T12:08:36.906Z,3.00
2022-12-03T12:11:04.139Z,3.00
2022-12-03T12:13:31.433Z,2.90
2022-12-03T12:16:03.028Z,2.80
2022-12-03T12:18:43.682Z,2.70
2022-12-03T12:21:48.272Z,2.80
2022-12-03T12:24:40.192Z,2.80
2022-12-03T12:27:09.100Z,2.70
2022-12-03T12:29:37.042Z,2.80
2022-12-03T12:32:10.792Z,2.80
2022-12-03T12:34:41.529Z,2.90
2022-12-03T12:37:14.609Z,3.00
2022-12-03T12:39:41.870Z,3.00
2022-12-03T12:42:25.357Z,3.00
2022-12-03T12:44:52.460Z,3.00
2022-12-03T12:47:19.661Z,2.90
2022-12-03T12:49:51.595Z,2.90
2022-12-03T12:52:19.186Z,2.90
2022-12-03T12:54:46.538Z,2.90
2022-12-03T12:57:15.858Z,3.00
2022-12-03T12:59:43.037Z,2.90
2022-12-03T13:02:30.240Z,2.60
2022-12-03T13:04:57.891Z,2.60
2022-12-03T13:07:26.513Z,2.70
2022-12-03T13:09:56.014Z,2.80
2022-12-03T13:12:24.069Z,2.70
2022-12-03T13:14:52.411Z,2.70
2022-12-03T13:17:24.491Z,2.70
2022-12-03T13:20:00.537Z,2.70
2022-12-03T13:22:32.560Z,2.80
2022-12-03T13:25:00.195Z,2.80
2022-12-03T13:27:31.240Z,2.70
2022-12-03T13:30:02.960Z,2.60
2022-12-03T13:32:34.949Z,2.60
2022-12-03T13:35:17.670Z,2.50
2022-12-03T13:37:44.789Z,2.70
2022-12-03T13:40:28.943Z,2.70
2022-12-03T13:42:56.322Z,2.70
2022-12-03T13:45:26.482Z,2.80
2022-12-03T13:48:01.613Z,2.70
2022-12-03T13:50:35.779Z,2.70
2022-12-03T13:53:06.183Z,2.80
2022-12-03T13:55:33.572Z,2.70
2022-12-03T13:58:00.663Z,2.70
2022-12-03T14:00:28.032Z,2.70
2022-12-03T14:02:55.206Z,2.80
2022-12-03T14:05:22.511Z,2.70
2022-12-03T14:07:49.958Z,2.60
2022-12-03T14:10:17.250Z,2.50
2022-12-03T14:12:44.330Z,2.50
2022-12-03T14:15:11.745Z,2.40
2022-12-03T14:17:38.870Z,2.40
2022-12-03T14:20:07.269Z,2.40
2022-12-03T14:22:38.129Z,2.50
2022-12-03T14:25:06.715Z,2.30
2022-12-03T14:27:33.922Z,2.40
2022-12-03T14:30:01.161Z,2.30
2022-12-03T14:32:28.500Z,2.20
2022-12-03T14:34:55.629Z,2.30
2022-12-03T14:37:22.791Z,2.20
2022-12-03T14:39:50.116Z,2.20
2022-12-03T14:42:18.676Z,2.30
2022-12-03T14:44:49.925Z,2.30
2022-12-03T14:47:18.707Z,2.20
2022-12-03T14:49:46.047Z,2.20
2022-12-03T14:52:13.236Z,2.20
2022-12-03T14:54:42.807Z,2.20
2022-12-03T14:57:11.568Z,2.20
2022-12-03T14:59:40.808Z,2.20
2022-12-03T15:02:08.521Z,2.20
2022-12-03T15:04:35.716Z,2.10
2022-12-03T15:07:02.968Z,2.10
2022-12-03T15:09:30.085Z,2.10
2022-12-03T15:11:57.163Z,2.00
2022-12-03T15:14:24.361Z,2.10
2022-12-03T15:16:51.673Z,2.10
2022-12-03T15:19:18.885Z,2.00
2022-12-03T15:21:46.492Z,2.00
2022-12-03T15:24:13.902Z,2.10
2022-12-03T15:26:41.072Z,2.10
2022-12-03T15:29:08.356Z,2.10
2022-12-03T15:31:35.536Z,2.10
2022-12-03T15:34:02.783Z,2.10
2022-12-03T15:36:30.057Z,2.10
2022-12-03T15:38:57.930Z,2.10
2022-12-03T15:41:29.198Z,2.10
2022-12-03T15:44:02.358Z,2.10
2022-12-03T15:46:31.399Z,2.00
2022-12-03T15:48:58.662Z,2.00
2022-12-03T15:51:25.884Z,2.00
2022-12-03T15:53:53.250Z,2.10
2022-12-03T15:56:20.456Z,2.10
2022-12-03T15:58:47.760Z,2.10
2022-12-03T16:01:15.247Z,2.10
2022-12-03T16:03:42.397Z,2.10
2022-12-03T16:06:09.561Z,2.00
2022-12-03T16:08:37.126Z,2.00
2022-12-03T16:11:04.291Z,2.00
2022-12-03T16:13:31.445Z,2.00
2022-12-03T16:15:58.613Z,2.00
2022-12-03T16:18:25.862Z,2.00
2022-12-03T16:20:53.459Z,2.00
2022-12-03T16:23:20.722Z,2.00
2022-12-03T16:25:48.122Z,2.00
2022-12-03T16:28:15.496Z,1.90
2022-12-03T16:30:42.982Z,1.90
2022-12-03T16:33:10.342Z,1.90
2022-12-03T16:35:37.774Z,2.00
2022-12-03T16:38:05.028Z,2.00
2022-12-03T16:40:32.487Z,2.10
2022-12-03T16:42:59.904Z,2.10
2022-12-03T16:45:30.211Z,2.10
2022-12-03T16:47:57.479Z,2.10
2022-12-03T16:50:29.784Z,2.10
2022-12-03T16:52:58.229Z,2.00
2022-12-03T16:55:25.860Z,2.00
2022-12-03T16:57:53.191Z,2.00
2022-12-03T17:00:22.103Z,2.00
2022-12-03T17:02:49.698Z,2.00
2022-12-03T17:05:17.118Z,2.10
2022-12-03T17:07:44.443Z,2.00
2022-12-03T17:10:12.064Z,2.10
2022-12-03T17:13:07.791Z,2.00
2022-12-03T17:15:27.141Z,2.00
2022-12-03T17:17:54.691Z,2.00
2022-12-03T17:20:22.129Z,2.00
2022-12-03T17:22:49.856Z,2.00
2022-12-03T17:25:17.204Z,2.00
2022-12-03T17:27:45.541Z,2.00
2022-12-03T17:30:13.271Z,2.10
2022-12-03T17:32:40.676Z,2.10
2022-12-03T17:35:08.568Z,2.10
2022-12-03T17:37:36.252Z,2.10
2022-12-03T17:40:05.331Z,2.00
2022-12-03T17:42:32.585Z,2.10
2022-12-03T17:44:59.846Z,2.10
2022-12-03T17:47:27.274Z,2.00
2022-12-03T17:49:54.871Z,2.10
2022-12-03T17:52:22.528Z,2.10
2022-12-03T17:55:09.666Z,2.10
2022-12-03T17:57:37.120Z,2.20
2022-12-03T18:00:05.155Z,2.10
2022-12-03T18:02:32.877Z,2.00
2022-12-03T18:05:00.312Z,1.90
2022-12-03T18:07:27.547Z,1.90
2022-12-03T18:09:55.346Z,1.90
2022-12-03T18:12:23.033Z,1.90
2022-12-03T18:14:50.369Z,1.90
2022-12-03T18:17:17.670Z,2.00
2022-12-03T18:19:45.213Z,2.00
2022-12-03T18:22:13.165Z,2.00
2022-12-03T18:24:40.636Z,2.00
2022-12-03T18:27:08.005Z,1.90
2022-12-03T18:29:35.349Z,1.90
2022-12-03T18:32:02.968Z,1.90
2022-12-03T18:34:30.369Z,2.00
2022-12-03T18:36:57.840Z,2.00
2022-12-03T18:39:30.688Z,2.00
2022-12-03T18:41:58.181Z,2.00
2022-12-03T18:44:25.463Z,1.90
2022-12-03T18:46:54.134Z,1.80
2022-12-03T18:49:22.396Z,1.80
2022-12-03T18:51:53.329Z,1.70
2022-12-03T18:54:24.937Z,1.80
2022-12-03T18:56:52.306Z,1.70
2022-12-03T18:59:19.570Z,1.80
2022-12-03T19:01:46.957Z,1.80
2022-12-03T19:04:14.365Z,1.70
2022-12-03T19:06:41.783Z,1.70
2022-12-03T19:09:09.486Z,1.60
2022-12-03T19:11:36.828Z,1.60
2022-12-03T19:14:04.178Z,1.60
2022-12-03T19:16:31.835Z,1.60
2022-12-03T19:18:59.331Z,1.70
2022-12-03T19:21:32.172Z,1.80
2022-12-03T19:24:24.151Z,1.90
2022-12-03T19:26:48.791Z,1.80
2022-12-03T19:29:16.143Z,1.70
2022-12-03T19:31:43.621Z,1.70
2022-12-03T19:34:11.218Z,1.70
2022-12-03T19:36:38.678Z,1.70
2022-12-03T19:39:05.946Z,1.70
2022-12-03T19:41:33.445Z,1.80
2022-12-03T19:44:01.715Z,1.80
2022-12-03T19:46:31.443Z,1.80
2022-12-03T19:48:58.768Z,1.80
2022-12-03T19:51:34.623Z,1.70
2022-12-03T19:54:06.273Z,1.80
2022-12-03T19:56:33.870Z,1.70
2022-12-03T19:59:01.507Z,1.70
2022-12-03T20:01:30.559Z,1.70
2022-12-03T20:03:59.373Z,1.70
2022-12-03T20:06:28.758Z,1.80
2022-12-03T20:08:57.251Z,1.80
2022-12-03T20:11:25.996Z,1.80
2022-12-03T20:13:57.427Z,1.80
2022-12-03T20:16:25.263Z,1.80
2022-12-03T20:18:55.726Z,1.80
2022-12-03T20:21:22.982Z,1.70
2022-12-03T20:23:50.363Z,1.80
2022-12-03T20:26:19.356Z,1.80
2022-12-03T20:28:48.221Z,1.80
2022-12-03T20:31:17.696Z,1.80
2022-12-03T20:33:46.888Z,1.80
2022-12-03T20:36:15.032Z,1.80
2022-12-03T20:38:42.661Z,1.80
2022-12-03T20:41:11.902Z,1.80
2022-12-03T20:43:39.164Z,1.80
2022-12-03T20:46:10.709Z,1.70
2022-12-03T20:48:38.276Z,1.70
2022-12-03T20:51:15.548Z,1.70
2022-12-03T20:53:43.395Z,1.70
2022-12-03T20:56:10.733Z,1.80
2022-12-03T20:58:38.001Z,1.70
2022-12-03T21:01:15.983Z,1.70
2022-12-03T21:03:44.321Z,1.70
2022-12-03T21:06:12.212Z,1.60
2022-12-03T21:08:41.997Z,1.60
2022-12-03T21:11:14.935Z,1.60
2022-12-03T21:13:44.181Z,1.60
2022-12-03T21:16:17.498Z,1.60
2022-12-03T21:18:45.199Z,1.60
2022-12-03T21:21:13.182Z,1.50
2022-12-03T21:23:40.721Z,1.40
2022-12-03T21:26:10.542Z,1.40
2022-12-03T21:28:41.424Z,1.30
2022-12-03T21:31:10.355Z,1.30
2022-12-03T21:33:37.765Z,1.40
2022-12-03T21:36:05.662Z,1.30
2022-12-03T21:38:33.384Z,1.30
2022-12-03T21:41:01.152Z,1.30
2022-12-03T21:43:28.483Z,1.30
2022-12-03T21:45:55.947Z,1.30
2022-12-03T21:48:23.298Z,1.30
2022-12-03T21:51:04.570Z,1.30
2022-12-03T21:53:32.530Z,1.30
2022-12-03T21:56:00.396Z,1.20
2022-12-03T21:58:28.004Z,1.10
2022-12-03T22:00:55.369Z,1.10
2022-12-03T22:03:22.612Z,1.10
2022-12-03T22:05:50.651Z,1.20
2022-12-03T22:08:18.597Z,1.20
2022-12-03T22:10:45.923Z,1.20
2022-12-03T22:13:13.451Z,1.20
2022-12-03T22:15:40.796Z,1.30
2022-12-03T22:18:08.134Z,1.30
2022-12-03T22:20:35.707Z,1.20
2022-12-03T22:23:02.960Z,1.20
2022-12-03T22:25:30.808Z,1.30
2022-12-03T22:27:58.110Z,1.30
2022-12-03T22:30:25.725Z,1.20
2022-12-03T22:32:52.995Z,1.20
2022-12-03T22:35:20.229Z,1.20
2022-12-03T22:37:47.569Z,1.20
2022-12-03T22:40:14.864Z,1.20
2022-12-03T22:42:46.359Z,1.10
2022-12-03T22:45:17.644Z,1.20
2022-12-03T22:47:44.898Z,1.30
2022-12-03T22:50:12.581Z,1.30
2022-12-03T22:52:39.746Z,1.20
2022-12-03T22:55:07.216Z,1.20
2022-12-03T22:57:34.527Z,1.20
2022-12-03T23:00:01.700Z,1.20
2022-12-03T23:02:28.970Z,1.20
2022-12-03T23:04:56.328Z,1.20
2022-12-03T23:07:23.710Z,1.20
2022-12-03T23:09:51.067Z,1.10
2022-12-03T23:12:18.143Z,1.20
2022-12-03T23:14:45.368Z,1.10
2022-12-03T23:17:12.749Z,1.20
2022-12-03T23:19:39.857Z,1.20
2022-12-03T23:22:07.144Z,1.40
2022-12-03T23:24:34.585Z,1.40
2022-12-03T23:27:01.720Z,1.40
2022-12-03T23:29:28.943Z,1.40
2022-12-03T23:31:57.395Z,1.40
2022-12-03T23:34:24.631Z,1.40
2022-12-03T23:36:52.134Z,1.30
2022-12-03T23:39:19.300Z,1.40
2022-12-03T23:41:46.490Z,1.30
2022-12-03T23:44:13.642Z,1.30
2022-12-03T23:46:41.254Z,1.30
2022-12-03T23:49:08.783Z,1.30
2022-12-03T23:51:35.904Z,1.40
2022-12-03T23:54:03.115Z,1.50
2022-12-03T23:56:30.908Z,1.40
2022-12-03T23:58:58.179Z,1.40
